sensor_id;sensor_type;location;lat;lon;timestamp;temperature;humidity
67249;SHT31;63247;54.300;18.592;2022-12-18T00:01:21;-4.62;99.99
67249;SHT31;63247;54.300;18.592;2022-12-18T00:03:47;-4.66;99.99
67249;SHT31;63247;54.300;18.592;2022-12-18T00:06:12;-4.73;99.99
67249;SHT31;63247;54.300;18.592;2022-12-18T00:08:39;-4.76;99.99
67249;SHT31;63247;54.300;18.592;2022-12-18T00:11:10;-4.79;99.99
67249;SHT31;63247;54.300;18.592;2022-12-18T00:13:36;-4.76;99.99
67249;SHT31;63247;54.300;18.592;2022-12-18T00:16:06;-4.89;99.99
67249;SHT31;63247;54.300;18.592;2022-12-18T00:18:32;-4.87;99.99
67249;SHT31;63247;54.300;18.592;2022-12-18T00:21:03;-4.97;99.99
67249;SHT31;63247;54.300;18.592;2022-12-18T00:23:29;-4.93;99.99
67249;SHT31;63247;54.300;18.592;2022-12-18T00:26:02;-5.01;99.99
67249;SHT31;63247;54.300;18.592;2022-12-18T00:28:28;-5.04;99.99
67249;SHT31;63247;54.300;18.592;2022-12-18T00:31:04;-5.01;99.99
67249;SHT31;63247;54.300;18.592;2022-12-18T00:33:30;-5.10;99.99
67249;SHT31;63247;54.300;18.592;2022-12-18T00:36:04;-5.08;99.99
67249;SHT31;63247;54.300;18.592;2022-12-18T00:38:29;-5.15;99.99
67249;SHT31;63247;54.300;18.592;2022-12-18T00:40:55;-5.18;99.99
67249;SHT31;63247;54.300;18.592;2022-12-18T00:43:21;-5.14;99.99
67249;SHT31;63247;54.300;18.592;2022-12-18T00:45:46;-5.14;99.99
67249;SHT31;63247;54.300;18.592;2022-12-18T00:48:11;-5.20;99.99
67249;SHT31;63247;54.300;18.592;2022-12-18T00:50:37;-5.27;99.99
67249;SHT31;63247;54.300;18.592;2022-12-18T00:53:03;-5.21;99.99
67249;SHT31;63247;54.300;18.592;2022-12-18T00:55:29;-5.18;99.99
67249;SHT31;63247;54.300;18.592;2022-12-18T00:57:54;-5.18;99.99
67249;SHT31;63247;54.300;18.592;2022-12-18T01:00:20;-5.13;99.99
67249;SHT31;63247;54.300;18.592;2022-12-18T01:02:45;-5.13;99.99
67249;SHT31;63247;54.300;18.592;2022-12-18T01:05:12;-5.15;99.99
67249;SHT31;63247;54.300;18.592;2022-12-18T01:07:37;-5.14;99.99
67249;SHT31;63247;54.300;18.592;2022-12-18T01:10:04;-5.07;99.99
67249;SHT31;63247;54.300;18.592;2022-12-18T01:12:30;-5.03;99.99
67249;SHT31;63247;54.300;18.592;2022-12-18T01:14:55;-4.97;99.99
67249;SHT31;63247;54.300;18.592;2022-12-18T01:17:21;-4.92;99.99
67249;SHT31;63247;54.300;18.592;2022-12-18T01:19:46;-4.80;99.99
67249;SHT31;63247;54.300;18.592;2022-12-18T01:22:12;-4.76;99.99
67249;SHT31;63247;54.300;18.592;2022-12-18T01:24:37;-4.72;99.99
67249;SHT31;63247;54.300;18.592;2022-12-18T01:27:03;-4.69;99.99
67249;SHT31;63247;54.300;18.592;2022-12-18T01:29:28;-4.66;99.99
67249;SHT31;63247;54.300;18.592;2022-12-18T01:31:55;-4.52;99.99
67249;SHT31;63247;54.300;18.592;2022-12-18T01:34:21;-4.46;99.99
67249;SHT31;63247;54.300;18.592;2022-12-18T01:36:46;-4.46;99.99
67249;SHT31;63247;54.300;18.592;2022-12-18T01:39:13;-4.35;99.99
67249;SHT31;63247;54.300;18.592;2022-12-18T01:41:39;-4.29;99.99
67249;SHT31;63247;54.300;18.592;2022-12-18T01:45:42;-4.28;99.99
67249;SHT31;63247;54.300;18.592;2022-12-18T01:47:43;-4.13;99.99
67249;SHT31;63247;54.300;18.592;2022-12-18T01:52:56;-3.96;99.99
67249;SHT31;63247;54.300;18.592;2022-12-18T01:55:25;-3.94;99.99
67249;SHT31;63247;54.300;18.592;2022-12-18T01:57:54;-3.90;99.99
67249;SHT31;63247;54.300;18.592;2022-12-18T02:00:21;-3.85;99.99
67249;SHT31;63247;54.300;18.592;2022-12-18T02:02:47;-3.73;99.99
67249;SHT31;63247;54.300;18.592;2022-12-18T02:05:16;-3.58;99.99
67249;SHT31;63247;54.300;18.592;2022-12-18T02:10:28;-3.39;99.99
67249;SHT31;63247;54.300;18.592;2022-12-18T02:13:17;-3.39;99.99
67249;SHT31;63247;54.300;18.592;2022-12-18T02:18:41;-3.28;99.77
67249;SHT31;63247;54.300;18.592;2022-12-18T02:24:17;-3.17;99.06
67249;SHT31;63247;54.300;18.592;2022-12-18T02:26:47;-3.22;99.20
67249;SHT31;63247;54.300;18.592;2022-12-18T02:29:24;-3.24;99.08
67249;SHT31;63247;54.300;18.592;2022-12-18T02:31:54;-3.17;99.23
67249;SHT31;63247;54.300;18.592;2022-12-18T02:34:23;-3.08;98.85
67249;SHT31;63247;54.300;18.592;2022-12-18T02:36:51;-3.08;98.80
67249;SHT31;63247;54.300;18.592;2022-12-18T02:39:17;-3.03;98.79
67249;SHT31;63247;54.300;18.592;2022-12-18T02:41:45;-3.05;99.16
67249;SHT31;63247;54.300;18.592;2022-12-18T02:44:13;-3.05;98.75
67249;SHT31;63247;54.300;18.592;2022-12-18T02:46:51;-3.10;98.47
67249;SHT31;63247;54.300;18.592;2022-12-18T02:57:20;-3.01;98.03
67249;SHT31;63247;54.300;18.592;2022-12-18T02:59:58;-3.08;97.72
67249;SHT31;63247;54.300;18.592;2022-12-18T03:02:29;-3.07;97.28
67249;SHT31;63247;54.300;18.592;2022-12-18T03:05:13;-3.08;97.35
67249;SHT31;63247;54.300;18.592;2022-12-18T03:07:59;-3.12;97.21
67249;SHT31;63247;54.300;18.592;2022-12-18T03:10:29;-3.18;97.19
67249;SHT31;63247;54.300;18.592;2022-12-18T03:16:18;-3.20;96.87
67249;SHT31;63247;54.300;18.592;2022-12-18T03:18:52;-3.21;96.95
67249;SHT31;63247;54.300;18.592;2022-12-18T03:21:24;-3.17;96.92
67249;SHT31;63247;54.300;18.592;2022-12-18T03:23:52;-3.14;96.65
67249;SHT31;63247;54.300;18.592;2022-12-18T03:26:21;-3.08;96.46
67249;SHT31;63247;54.300;18.592;2022-12-18T03:28:51;-3.10;96.54
67249;SHT31;63247;54.300;18.592;2022-12-18T03:31:21;-2.99;96.24
67249;SHT31;63247;54.300;18.592;2022-12-18T03:33:59;-2.99;95.92
67249;SHT31;63247;54.300;18.592;2022-12-18T03:36:26;-3.10;96.10
67249;SHT31;63247;54.300;18.592;2022-12-18T03:38:52;-3.01;96.09
67249;SHT31;63247;54.300;18.592;2022-12-18T03:41:27;-3.01;96.02
67249;SHT31;63247;54.300;18.592;2022-12-18T03:46:35;-2.97;95.89
67249;SHT31;63247;54.300;18.592;2022-12-18T03:49:11;-2.90;95.68
67249;SHT31;63247;54.300;18.592;2022-12-18T03:51:55;-3.00;95.44
67249;SHT31;63247;54.300;18.592;2022-12-18T03:54:23;-2.99;95.33
67249;SHT31;63247;54.300;18.592;2022-12-18T03:56:57;-3.08;95.37
67249;SHT31;63247;54.300;18.592;2022-12-18T03:59:24;-3.05;95.26
67249;SHT31;63247;54.300;18.592;2022-12-18T04:01:51;-3.11;95.34
67249;SHT31;63247;54.300;18.592;2022-12-18T04:04:19;-3.20;95.43
67249;SHT31;63247;54.300;18.592;2022-12-18T04:06:46;-3.25;95.48
67249;SHT31;63247;54.300;18.592;2022-12-18T04:09:13;-3.28;95.46
67249;SHT31;63247;54.300;18.592;2022-12-18T04:11:41;-3.37;95.76
67249;SHT31;63247;54.300;18.592;2022-12-18T04:14:09;-3.41;95.93
67249;SHT31;63247;54.300;18.592;2022-12-18T04:16:34;-3.42;95.83
67249;SHT31;63247;54.300;18.592;2022-12-18T04:19:00;-3.55;95.94
67249;SHT31;63247;54.300;18.592;2022-12-18T04:21:27;-3.49;95.86
67249;SHT31;63247;54.300;18.592;2022-12-18T04:23:52;-3.59;96.11
67249;SHT31;63247;54.300;18.592;2022-12-18T04:26:18;-3.58;95.98
67249;SHT31;63247;54.300;18.592;2022-12-18T04:28:43;-3.56;96.02
67249;SHT31;63247;54.300;18.592;2022-12-18T04:31:08;-3.56;95.95
67249;SHT31;63247;54.300;18.592;2022-12-18T04:33:34;-3.60;95.80
67249;SHT31;63247;54.300;18.592;2022-12-18T04:35:59;-3.63;95.94
67249;SHT31;63247;54.300;18.592;2022-12-18T04:38:25;-3.66;95.92
67249;SHT31;63247;54.300;18.592;2022-12-18T04:40:50;-3.69;96.04
67249;SHT31;63247;54.300;18.592;2022-12-18T04:43:16;-3.69;96.04
67249;SHT31;63247;54.300;18.592;2022-12-18T04:45:41;-3.76;96.04
67249;SHT31;63247;54.300;18.592;2022-12-18T04:48:07;-3.75;96.18
67249;SHT31;63247;54.300;18.592;2022-12-18T04:50:32;-3.70;96.19
67249;SHT31;63247;54.300;18.592;2022-12-18T04:52:57;-3.73;96.13
67249;SHT31;63247;54.300;18.592;2022-12-18T04:55:23;-3.70;96.04
67249;SHT31;63247;54.300;18.592;2022-12-18T04:57:48;-3.69;95.81
67249;SHT31;63247;54.300;18.592;2022-12-18T05:00:14;-3.70;96.05
67249;SHT31;63247;54.300;18.592;2022-12-18T05:02:40;-3.75;95.98
67249;SHT31;63247;54.300;18.592;2022-12-18T05:05:06;-3.72;96.03
67249;SHT31;63247;54.300;18.592;2022-12-18T05:07:31;-3.83;96.05
67249;SHT31;63247;54.300;18.592;2022-12-18T05:09:57;-3.80;96.14
67249;SHT31;63247;54.300;18.592;2022-12-18T05:12:22;-3.83;96.03
67249;SHT31;63247;54.300;18.592;2022-12-18T05:14:48;-3.79;95.90
67249;SHT31;63247;54.300;18.592;2022-12-18T05:17:13;-3.72;95.75
67249;SHT31;63247;54.300;18.592;2022-12-18T05:19:39;-3.82;95.80
67249;SHT31;63247;54.300;18.592;2022-12-18T05:22:07;-3.87;96.04
67249;SHT31;63247;54.300;18.592;2022-12-18T05:24:32;-3.75;95.92
67249;SHT31;63247;54.300;18.592;2022-12-18T05:26:58;-3.79;95.92
67249;SHT31;63247;54.300;18.592;2022-12-18T05:29:23;-3.73;95.73
67249;SHT31;63247;54.300;18.592;2022-12-18T05:31:49;-3.70;95.63
67249;SHT31;63247;54.300;18.592;2022-12-18T05:34:14;-3.72;95.60
67249;SHT31;63247;54.300;18.592;2022-12-18T05:36:40;-3.68;95.75
67249;SHT31;63247;54.300;18.592;2022-12-18T05:39:06;-3.79;95.72
67249;SHT31;63247;54.300;18.592;2022-12-18T05:41:32;-3.76;95.75
67249;SHT31;63247;54.300;18.592;2022-12-18T05:43:58;-3.76;95.61
67249;SHT31;63247;54.300;18.592;2022-12-18T05:46:23;-3.83;95.71
67249;SHT31;63247;54.300;18.592;2022-12-18T05:48:49;-3.82;95.80
67249;SHT31;63247;54.300;18.592;2022-12-18T05:51:18;-3.82;95.78
67249;SHT31;63247;54.300;18.592;2022-12-18T05:53:44;-3.87;95.87
67249;SHT31;63247;54.300;18.592;2022-12-18T05:56:12;-3.79;95.63
67249;SHT31;63247;54.300;18.592;2022-12-18T05:58:39;-3.82;95.55
67249;SHT31;63247;54.300;18.592;2022-12-18T06:01:09;-3.82;95.51
67249;SHT31;63247;54.300;18.592;2022-12-18T06:03:35;-3.79;95.34
67249;SHT31;63247;54.300;18.592;2022-12-18T06:06:00;-3.90;95.46
67249;SHT31;63247;54.300;18.592;2022-12-18T06:08:26;-3.97;95.60
67249;SHT31;63247;54.300;18.592;2022-12-18T06:10:52;-3.94;95.62
67249;SHT31;63247;54.300;18.592;2022-12-18T06:13:18;-3.96;95.72
67249;SHT31;63247;54.300;18.592;2022-12-18T06:15:43;-4.10;95.98
67249;SHT31;63247;54.300;18.592;2022-12-18T06:18:09;-4.01;95.79
67249;SHT31;63247;54.300;18.592;2022-12-18T06:20:34;-4.08;95.96
67249;SHT31;63247;54.300;18.592;2022-12-18T06:23:02;-4.03;95.79
67249;SHT31;63247;54.300;18.592;2022-12-18T06:25:27;-3.98;95.72
67249;SHT31;63247;54.300;18.592;2022-12-18T06:27:53;-3.90;95.37
67249;SHT31;63247;54.300;18.592;2022-12-18T06:30:18;-3.85;95.15
67249;SHT31;63247;54.300;18.592;2022-12-18T06:32:44;-3.86;95.13
67249;SHT31;63247;54.300;18.592;2022-12-18T06:35:10;-3.97;95.26
67249;SHT31;63247;54.300;18.592;2022-12-18T06:37:35;-3.91;95.26
67249;SHT31;63247;54.300;18.592;2022-12-18T06:40:01;-3.93;94.99
67249;SHT31;63247;54.300;18.592;2022-12-18T06:42:26;-3.91;95.08
67249;SHT31;63247;54.300;18.592;2022-12-18T06:44:53;-3.94;95.35
67249;SHT31;63247;54.300;18.592;2022-12-18T06:47:19;-4.03;95.33
67249;SHT31;63247;54.300;18.592;2022-12-18T06:49:44;-4.01;95.10
67249;SHT31;63247;54.300;18.592;2022-12-18T06:52:09;-3.97;95.17
67249;SHT31;63247;54.300;18.592;2022-12-18T06:54:35;-3.96;94.99
67249;SHT31;63247;54.300;18.592;2022-12-18T06:57:00;-4.03;95.01
67249;SHT31;63247;54.300;18.592;2022-12-18T06:59:26;-3.94;94.86
67249;SHT31;63247;54.300;18.592;2022-12-18T07:01:51;-3.94;94.86
67249;SHT31;63247;54.300;18.592;2022-12-18T07:04:17;-3.97;94.73
67249;SHT31;63247;54.300;18.592;2022-12-18T07:06:42;-3.90;94.54
67249;SHT31;63247;54.300;18.592;2022-12-18T07:09:07;-3.72;94.27
67249;SHT31;63247;54.300;18.592;2022-12-18T07:11:33;-3.65;94.05
67249;SHT31;63247;54.300;18.592;2022-12-18T07:13:59;-3.73;94.16
67249;SHT31;63247;54.300;18.592;2022-12-18T07:16:24;-3.82;94.21
67249;SHT31;63247;54.300;18.592;2022-12-18T07:18:50;-3.86;94.40
67249;SHT31;63247;54.300;18.592;2022-12-18T07:21:17;-3.85;94.32
67249;SHT31;63247;54.300;18.592;2022-12-18T07:23:43;-3.34;93.23
67249;SHT31;63247;54.300;18.592;2022-12-18T07:26:11;-2.44;90.42
67249;SHT31;63247;54.300;18.592;2022-12-18T07:28:38;-1.77;88.45
67249;SHT31;63247;54.300;18.592;2022-12-18T07:31:12;-1.30;87.21
67249;SHT31;63247;54.300;18.592;2022-12-18T07:33:38;-1.19;86.58
67249;SHT31;63247;54.300;18.592;2022-12-18T07:36:05;-0.91;86.27
67249;SHT31;63247;54.300;18.592;2022-12-18T07:38:33;-1.07;87.27
67249;SHT31;63247;54.300;18.592;2022-12-18T07:41:05;-0.50;85.69
67249;SHT31;63247;54.300;18.592;2022-12-18T07:43:31;-0.21;86.21
67249;SHT31;63247;54.300;18.592;2022-12-18T07:45:58;0.14;84.85
67249;SHT31;63247;54.300;18.592;2022-12-18T07:48:23;0.22;84.09
67249;SHT31;63247;54.300;18.592;2022-12-18T07:50:49;0.77;85.73
67249;SHT31;63247;54.300;18.592;2022-12-18T07:53:14;1.02;83.25
67249;SHT31;63247;54.300;18.592;2022-12-18T07:55:41;0.96;81.70
67249;SHT31;63247;54.300;18.592;2022-12-18T07:58:07;1.35;84.38
67249;SHT31;63247;54.300;18.592;2022-12-18T08:00:33;1.56;84.35
67249;SHT31;63247;54.300;18.592;2022-12-18T08:02:58;1.78;80.54
67249;SHT31;63247;54.300;18.592;2022-12-18T08:05:24;1.99;81.03
67249;SHT31;63247;54.300;18.592;2022-12-18T08:07:49;1.88;79.54
67249;SHT31;63247;54.300;18.592;2022-12-18T08:10:15;2.25;76.59
67249;SHT31;63247;54.300;18.592;2022-12-18T08:12:40;2.60;75.73
67249;SHT31;63247;54.300;18.592;2022-12-18T08:15:06;2.53;75.25
67249;SHT31;63247;54.300;18.592;2022-12-18T08:17:32;2.66;74.61
67249;SHT31;63247;54.300;18.592;2022-12-18T08:19:57;3.04;72.42
67249;SHT31;63247;54.300;18.592;2022-12-18T08:22:23;3.03;71.97
67249;SHT31;63247;54.300;18.592;2022-12-18T08:24:48;3.21;70.92
67249;SHT31;63247;54.300;18.592;2022-12-18T08:27:14;3.36;70.41
67249;SHT31;63247;54.300;18.592;2022-12-18T08:29:39;3.80;68.66
67249;SHT31;63247;54.300;18.592;2022-12-18T08:32:04;3.72;68.46
67249;SHT31;63247;54.300;18.592;2022-12-18T08:34:30;3.87;67.86
67249;SHT31;63247;54.300;18.592;2022-12-18T08:36:55;4.05;67.34
67249;SHT31;63247;54.300;18.592;2022-12-18T08:39:21;3.77;66.49
67249;SHT31;63247;54.300;18.592;2022-12-18T08:41:46;4.02;66.41
67249;SHT31;63247;54.300;18.592;2022-12-18T08:44:32;4.04;65.75
67249;SHT31;63247;54.300;18.592;2022-12-18T08:47:03;4.11;65.67
67249;SHT31;63247;54.300;18.592;2022-12-18T08:49:29;4.86;65.11
67249;SHT31;63247;54.300;18.592;2022-12-18T08:51:55;5.14;64.25
67249;SHT31;63247;54.300;18.592;2022-12-18T08:54:23;4.41;65.50
67249;SHT31;63247;54.300;18.592;2022-12-18T08:56:48;4.01;65.17
67249;SHT31;63247;54.300;18.592;2022-12-18T08:59:15;4.96;62.88
67249;SHT31;63247;54.300;18.592;2022-12-18T09:01:41;4.07;64.02
67249;SHT31;63247;54.300;18.592;2022-12-18T09:04:08;4.24;64.25
67249;SHT31;63247;54.300;18.592;2022-12-18T09:06:34;4.32;63.25
67249;SHT31;63247;54.300;18.592;2022-12-18T09:09:00;4.72;63.31
67249;SHT31;63247;54.300;18.592;2022-12-18T09:11:26;5.06;60.82
67249;SHT31;63247;54.300;18.592;2022-12-18T09:13:53;4.28;62.81
67249;SHT31;63247;54.300;18.592;2022-12-18T09:16:19;4.31;62.47
67249;SHT31;63247;54.300;18.592;2022-12-18T09:18:46;4.38;62.95
67249;SHT31;63247;54.300;18.592;2022-12-18T09:21:14;5.17;60.98
67249;SHT31;63247;54.300;18.592;2022-12-18T09:23:40;4.56;61.06
67249;SHT31;63247;54.300;18.592;2022-12-18T09:26:06;5.48;60.85
67249;SHT31;63247;54.300;18.592;2022-12-18T09:28:32;5.47;60.35
67249;SHT31;63247;54.300;18.592;2022-12-18T09:30:58;5.62;58.95
67249;SHT31;63247;54.300;18.592;2022-12-18T09:33:23;5.18;59.36
67249;SHT31;63247;54.300;18.592;2022-12-18T09:35:49;5.38;59.35
67249;SHT31;63247;54.300;18.592;2022-12-18T09:38:18;5.00;60.38
67249;SHT31;63247;54.300;18.592;2022-12-18T09:40:52;4.69;60.47
67249;SHT31;63247;54.300;18.592;2022-12-18T09:43:31;4.90;59.87
67249;SHT31;63247;54.300;18.592;2022-12-18T09:46:02;4.79;60.08
67249;SHT31;63247;54.300;18.592;2022-12-18T09:48:31;4.99;59.62
67249;SHT31;63247;54.300;18.592;2022-12-18T09:54:01;5.34;59.09
67249;SHT31;63247;54.300;18.592;2022-12-18T09:56:28;5.16;58.54
67249;SHT31;63247;54.300;18.592;2022-12-18T09:58:58;4.59;60.47
67249;SHT31;63247;54.300;18.592;2022-12-18T10:01:25;4.76;60.01
67249;SHT31;63247;54.300;18.592;2022-12-18T10:03:52;5.04;60.26
67249;SHT31;63247;54.300;18.592;2022-12-18T10:09:16;5.08;59.80
67249;SHT31;63247;54.300;18.592;2022-12-18T10:12:05;4.44;60.92
67249;SHT31;63247;54.300;18.592;2022-12-18T10:15:02;4.28;60.07
67249;SHT31;63247;54.300;18.592;2022-12-18T10:20:46;4.05;60.33
67249;SHT31;63247;54.300;18.592;2022-12-18T10:26:06;4.72;59.72
67249;SHT31;63247;54.300;18.592;2022-12-18T10:28:35;4.38;60.37
67249;SHT31;63247;54.300;18.592;2022-12-18T10:31:02;4.31;59.73
67249;SHT31;63247;54.300;18.592;2022-12-18T10:33:30;4.18;60.43
67249;SHT31;63247;54.300;18.592;2022-12-18T10:35:57;4.17;59.69
67249;SHT31;63247;54.300;18.592;2022-12-18T10:38:30;4.41;60.49
67249;SHT31;63247;54.300;18.592;2022-12-18T10:41:00;4.20;59.88
67249;SHT31;63247;54.300;18.592;2022-12-18T10:43:36;4.07;60.11
67249;SHT31;63247;54.300;18.592;2022-12-18T10:48:55;4.27;59.62
67249;SHT31;63247;54.300;18.592;2022-12-18T10:51:32;4.81;59.56
67249;SHT31;63247;54.300;18.592;2022-12-18T10:54:06;4.30;59.68
67249;SHT31;63247;54.300;18.592;2022-12-18T10:56:34;3.69;61.57
67249;SHT31;63247;54.300;18.592;2022-12-18T10:59:05;3.48;62.07
67249;SHT31;63247;54.300;18.592;2022-12-18T11:01:55;3.67;61.28
67249;SHT31;63247;54.300;18.592;2022-12-18T11:07:01;2.81;63.87
67249;SHT31;63247;54.300;18.592;2022-12-18T11:12:01;1.95;66.35
67249;SHT31;63247;54.300;18.592;2022-12-18T11:20:06;1.10;69.40
67249;SHT31;63247;54.300;18.592;2022-12-18T11:22:43;1.10;69.94
67249;SHT31;63247;54.300;18.592;2022-12-18T11:25:19;0.78;70.47
67249;SHT31;63247;54.300;18.592;2022-12-18T11:27:59;0.75;70.57
67249;SHT31;63247;54.300;18.592;2022-12-18T11:30:30;0.57;70.82
67249;SHT31;63247;54.300;18.592;2022-12-18T11:33:13;0.39;71.43
67249;SHT31;63247;54.300;18.592;2022-12-18T11:35:51;0.56;71.92
67249;SHT31;63247;54.300;18.592;2022-12-18T11:38:37;0.50;72.04
67249;SHT31;63247;54.300;18.592;2022-12-18T11:41:11;0.50;72.16
67249;SHT31;63247;54.300;18.592;2022-12-18T11:43:51;0.57;72.04
67249;SHT31;63247;54.300;18.592;2022-12-18T11:46:32;0.47;72.52
67249;SHT31;63247;54.300;18.592;2022-12-18T11:49:06;0.44;72.18
67249;SHT31;63247;54.300;18.592;2022-12-18T11:51:52;0.17;73.39
67249;SHT31;63247;54.300;18.592;2022-12-18T11:54:19;0.02;73.92
67249;SHT31;63247;54.300;18.592;2022-12-18T11:57:11;0.06;73.75
67249;SHT31;63247;54.300;18.592;2022-12-18T12:00:01;-0.07;74.07
67249;SHT31;63247;54.300;18.592;2022-12-18T12:14:38;-0.52;75.74
67249;SHT31;63247;54.300;18.592;2022-12-18T12:20:11;-0.60;76.51
67249;SHT31;63247;54.300;18.592;2022-12-18T12:25:20;-0.60;76.03
67249;SHT31;63247;54.300;18.592;2022-12-18T12:31:11;-0.76;76.28
67249;SHT31;63247;54.300;18.592;2022-12-18T12:36:26;-0.81;76.71
67249;SHT31;63247;54.300;18.592;2022-12-18T12:38:56;-0.94;76.84
67249;SHT31;63247;54.300;18.592;2022-12-18T12:41:30;-1.00;77.58
67249;SHT31;63247;54.300;18.592;2022-12-18T12:44:19;-1.01;77.38
67249;SHT31;63247;54.300;18.592;2022-12-18T12:46:47;-1.08;77.79
67249;SHT31;63247;54.300;18.592;2022-12-18T12:49:17;-1.07;77.86
67249;SHT31;63247;54.300;18.592;2022-12-18T12:51:46;-1.22;78.39
67249;SHT31;63247;54.300;18.592;2022-12-18T12:54:21;-1.28;79.06
67249;SHT31;63247;54.300;18.592;2022-12-18T13:07:58;-1.58;81.19
67249;SHT31;63247;54.300;18.592;2022-12-18T13:10:52;-1.64;81.78
67249;SHT31;63247;54.300;18.592;2022-12-18T13:13:53;-1.69;82.27
67249;SHT31;63247;54.300;18.592;2022-12-18T13:16:21;-1.72;82.33
67249;SHT31;63247;54.300;18.592;2022-12-18T13:18:55;-1.76;82.83
67249;SHT31;63247;54.300;18.592;2022-12-18T13:21:27;-1.86;83.08
67249;SHT31;63247;54.300;18.592;2022-12-18T13:23:54;-1.86;82.99
67249;SHT31;63247;54.300;18.592;2022-12-18T13:28:51;-1.97;83.50
67249;SHT31;63247;54.300;18.592;2022-12-18T13:34:18;-2.07;84.09
67249;SHT31;63247;54.300;18.592;2022-12-18T13:36:44;-2.18;84.46
67249;SHT31;63247;54.300;18.592;2022-12-18T13:39:33;-2.22;84.78
67249;SHT31;63247;54.300;18.592;2022-12-18T13:44:38;-2.32;84.83
67249;SHT31;63247;54.300;18.592;2022-12-18T13:47:27;-2.37;84.83
67249;SHT31;63247;54.300;18.592;2022-12-18T13:49:56;-2.45;85.08
67249;SHT31;63247;54.300;18.592;2022-12-18T13:52:25;-2.55;85.43
67249;SHT31;63247;54.300;18.592;2022-12-18T13:54:56;-2.49;85.37
67249;SHT31;63247;54.300;18.592;2022-12-18T13:57:27;-2.63;85.55
67249;SHT31;63247;54.300;18.592;2022-12-18T13:59:53;-2.66;85.71
67249;SHT31;63247;54.300;18.592;2022-12-18T14:02:24;-2.76;85.96
67249;SHT31;63247;54.300;18.592;2022-12-18T14:04:50;-2.79;86.04
67249;SHT31;63247;54.300;18.592;2022-12-18T14:07:19;-2.83;86.24
67249;SHT31;63247;54.300;18.592;2022-12-18T14:09:49;-2.84;86.20
67249;SHT31;63247;54.300;18.592;2022-12-18T14:12:18;-2.97;86.63
67249;SHT31;63247;54.300;18.592;2022-12-18T14:15:06;-3.14;86.90
67249;SHT31;63247;54.300;18.592;2022-12-18T14:17:36;-3.32;87.73
67249;SHT31;63247;54.300;18.592;2022-12-18T14:20:01;-3.45;88.25
67249;SHT31;63247;54.300;18.592;2022-12-18T14:22:27;-3.52;88.50
67249;SHT31;63247;54.300;18.592;2022-12-18T14:27:46;-3.65;89.06
67249;SHT31;63247;54.300;18.592;2022-12-18T14:35:38;-3.73;89.57
67249;SHT31;63247;54.300;18.592;2022-12-18T14:40:56;-3.82;89.75
67249;SHT31;63247;54.300;18.592;2022-12-18T14:43:22;-3.82;89.67
67249;SHT31;63247;54.300;18.592;2022-12-18T14:45:48;-3.79;89.63
67249;SHT31;63247;54.300;18.592;2022-12-18T14:50:56;-3.90;89.70
67249;SHT31;63247;54.300;18.592;2022-12-18T14:55:59;-3.96;89.57
67249;SHT31;63247;54.300;18.592;2022-12-18T14:58:25;-4.00;89.75
67249;SHT31;63247;54.300;18.592;2022-12-18T15:00:51;-4.08;89.75
67249;SHT31;63247;54.300;18.592;2022-12-18T15:03:20;-4.11;90.00
67249;SHT31;63247;54.300;18.592;2022-12-18T15:05:47;-4.06;89.66
67249;SHT31;63247;54.300;18.592;2022-12-18T15:08:35;-4.13;89.64
67249;SHT31;63247;54.300;18.592;2022-12-18T15:11:01;-4.21;89.92
67249;SHT31;63247;54.300;18.592;2022-12-18T15:13:27;-4.25;89.93
67249;SHT31;63247;54.300;18.592;2022-12-18T15:15:54;-4.34;90.00
67249;SHT31;63247;54.300;18.592;2022-12-18T15:18:27;-4.37;89.89
67249;SHT31;63247;54.300;18.592;2022-12-18T15:20:59;-4.48;90.18
67249;SHT31;63247;54.300;18.592;2022-12-18T15:23:35;-4.49;90.26
67249;SHT31;63247;54.300;18.592;2022-12-18T15:26:06;-4.51;90.10
67249;SHT31;63247;54.300;18.592;2022-12-18T15:28:52;-4.61;90.38
67249;SHT31;63247;54.300;18.592;2022-12-18T15:31:31;-4.64;89.99
67249;SHT31;63247;54.300;18.592;2022-12-18T15:36:24;-4.69;90.01
67249;SHT31;63247;54.300;18.592;2022-12-18T15:38:51;-4.71;90.02
67249;SHT31;63247;54.300;18.592;2022-12-18T15:41:18;-4.83;90.26
67249;SHT31;63247;54.300;18.592;2022-12-18T15:43:47;-4.86;90.70
67249;SHT31;63247;54.300;18.592;2022-12-18T15:46:15;-5.00;91.25
67249;SHT31;63247;54.300;18.592;2022-12-18T15:48:44;-5.06;91.61
67249;SHT31;63247;54.300;18.592;2022-12-18T15:51:29;-5.18;92.05
67249;SHT31;63247;54.300;18.592;2022-12-18T15:53:58;-5.28;92.27
67249;SHT31;63247;54.300;18.592;2022-12-18T15:56:24;-5.42;93.04
67249;SHT31;63247;54.300;18.592;2022-12-18T15:59:14;-5.52;93.54
67249;SHT31;63247;54.300;18.592;2022-12-18T16:01:41;-5.54;93.46
67249;SHT31;63247;54.300;18.592;2022-12-18T16:04:10;-5.62;93.38
67249;SHT31;63247;54.300;18.592;2022-12-18T16:06:36;-5.59;93.37
67249;SHT31;63247;54.300;18.592;2022-12-18T16:09:02;-5.59;93.58
67249;SHT31;63247;54.300;18.592;2022-12-18T16:11:29;-5.65;93.61
67249;SHT31;63247;54.300;18.592;2022-12-18T16:14:27;-5.79;94.22
67249;SHT31;63247;54.300;18.592;2022-12-18T16:16:54;-5.92;94.52
67249;SHT31;63247;54.300;18.592;2022-12-18T16:19:20;-6.06;94.76
67249;SHT31;63247;54.300;18.592;2022-12-18T16:21:47;-6.02;94.64
67249;SHT31;63247;54.300;18.592;2022-12-18T16:24:18;-5.90;94.37
67249;SHT31;63247;54.300;18.592;2022-12-18T16:26:44;-5.90;93.94
67249;SHT31;63247;54.300;18.592;2022-12-18T16:29:10;-5.85;93.45
67249;SHT31;63247;54.300;18.592;2022-12-18T16:31:36;-5.81;92.75
67249;SHT31;63247;54.300;18.592;2022-12-18T16:34:41;-5.81;92.79
67249;SHT31;63247;54.300;18.592;2022-12-18T16:37:09;-5.85;92.74
67249;SHT31;63247;54.300;18.592;2022-12-18T16:39:36;-5.83;92.28
67249;SHT31;63247;54.300;18.592;2022-12-18T16:44:33;-5.99;92.47
67249;SHT31;63247;54.300;18.592;2022-12-18T16:46:59;-5.85;91.96
67249;SHT31;63247;54.300;18.592;2022-12-18T16:49:27;-5.79;91.43
67249;SHT31;63247;54.300;18.592;2022-12-18T16:51:53;-5.75;91.11
67249;SHT31;63247;54.300;18.592;2022-12-18T16:54:19;-5.83;91.23
67249;SHT31;63247;54.300;18.592;2022-12-18T16:56:44;-5.96;91.44
67249;SHT31;63247;54.300;18.592;2022-12-18T16:59:12;-6.03;91.77
67249;SHT31;63247;54.300;18.592;2022-12-18T17:01:37;-6.21;92.68
67249;SHT31;63247;54.300;18.592;2022-12-18T17:04:05;-6.34;93.42
67249;SHT31;63247;54.300;18.592;2022-12-18T17:06:33;-6.40;93.88
67249;SHT31;63247;54.300;18.592;2022-12-18T17:09:03;-6.52;94.16
67249;SHT31;63247;54.300;18.592;2022-12-18T17:11:32;-6.65;94.45
67249;SHT31;63247;54.300;18.592;2022-12-18T17:13:58;-6.78;94.69
67249;SHT31;63247;54.300;18.592;2022-12-18T17:16:24;-6.81;94.81
67249;SHT31;63247;54.300;18.592;2022-12-18T17:18:52;-6.79;94.68
67249;SHT31;63247;54.300;18.592;2022-12-18T17:21:18;-6.85;94.79
67249;SHT31;63247;54.300;18.592;2022-12-18T17:23:44;-6.86;94.88
67249;SHT31;63247;54.300;18.592;2022-12-18T17:26:13;-6.97;95.09
67249;SHT31;63247;54.300;18.592;2022-12-18T17:28:39;-6.93;94.91